Time;durP1;ratioP1;P1;durP2;ratioP2;P2;SDS_P1;SDS_P2;PMS_P1;PMS_P2;Temp;Humidity;BMP_temperature;BMP_pressure;BME280_temperature;BME280_humidity;BME280_pressure;Samples;Min_cycle;Max_cycle;Signal;HPM_P1;HPM_P2
2022/11/27 00:00:25;;;;;;;30.77;8.50;;;5.60;99.70;;;;;;5016316;28;20153;-74
2022/11/27 00:02:50;;;;;;;29.20;8.55;;;5.60;99.70;;;;;;5020836;28;20065;-74
2022/11/27 00:05:16;;;;;;;28.75;7.88;;;5.60;99.70;;;;;;5027106;28;20025;-74
2022/11/27 00:07:41;;;;;;;28.30;10.07;;;5.60;99.80;;;;;;5021096;28;20045;-74
2022/11/27 00:10:07;;;;;;;23.63;8.52;;;5.50;99.60;;;;;;5025897;28;20024;-74
2022/11/27 00:12:33;;;;;;;24.08;8.18;;;5.50;99.60;;;;;;5021302;28;20414;-74
2022/11/27 00:14:59;;;;;;;22.95;8.82;;;5.50;99.70;;;;;;5018581;28;20084;-74
2022/11/27 00:17:24;;;;;;;31.23;8.52;;;5.40;99.60;;;;;;5023215;28;20067;-74
2022/11/27 00:19:50;;;;;;;26.23;8.15;;;5.50;99.70;;;;;;5028686;28;20322;-74
2022/11/27 00:22:15;;;;;;;29.52;8.98;;;5.40;99.50;;;;;;5025463;28;20045;-74
2022/11/27 00:24:42;;;;;;;26.17;7.82;;;5.40;99.60;;;;;;5017276;28;20033;-74
2022/11/27 00:27:08;;;;;;;25.83;8.52;;;5.40;99.50;;;;;;5029057;28;20034;-74
2022/11/27 00:29:34;;;;;;;25.60;9.57;;;5.50;99.60;;;;;;5021842;28;20147;-74
2022/11/27 00:31:59;;;;;;;25.67;7.85;;;5.40;99.50;;;;;;5025346;28;20034;-75
2022/11/27 00:34:25;;;;;;;31.10;8.30;;;5.40;99.40;;;;;;5032716;28;20040;-74
2022/11/27 00:36:51;;;;;;;27.25;7.90;;;5.40;99.50;;;;;;5033766;28;20112;-74
2022/11/27 00:39:17;;;;;;;21.02;8.02;;;5.40;99.50;;;;;;5028741;28;20397;-74
2022/11/27 00:41:42;;;;;;;24.30;7.35;;;5.40;99.40;;;;;;5027808;28;20053;-73
2022/11/27 00:44:08;;;;;;;27.27;7.78;;;5.50;99.30;;;;;;5024091;28;20033;-74
2022/11/27 00:46:34;;;;;;;21.70;8.43;;;5.30;99.20;;;;;;5026510;28;20034;-74
2022/11/27 00:49:01;;;;;;;27.80;8.52;;;5.30;99.20;;;;;;5031056;28;20030;-74
2022/11/27 00:51:27;;;;;;;26.20;8.60;;;5.30;99.40;;;;;;5038601;28;20095;-74
2022/11/27 00:53:54;;;;;;;19.35;7.38;;;5.20;99.20;;;;;;5029931;28;20421;-75
2022/11/27 00:56:25;;;;;;;27.23;7.25;;;5.10;99.20;;;;;;5027845;28;20095;-73
2022/11/27 00:58:51;;;;;;;22.05;7.35;;;5.10;99.30;;;;;;5033550;28;20107;-74
2022/11/27 01:01:24;;;;;;;23.77;7.53;;;5.10;99.30;;;;;;5023031;28;20025;-75
2022/11/27 01:03:50;;;;;;;27.80;8.13;;;5.00;99.30;;;;;;5029099;28;20043;-74
2022/11/27 01:06:17;;;;;;;22.05;7.57;;;5.00;99.40;;;;;;5027273;28;20518;-74
2022/11/27 01:08:42;;;;;;;31.35;7.85;;;5.10;99.60;;;;;;5034623;28;20445;-74
2022/11/27 01:11:24;;;;;;;25.63;7.63;;;5.10;99.50;;;;;;5026559;28;20114;-74
2022/11/27 01:13:50;;;;;;;34.38;8.02;;;5.00;99.40;;;;;;5029624;28;20095;-74
2022/11/27 01:16:22;;;;;;;26.95;7.97;;;5.10;99.60;;;;;;5030240;28;20026;-73
2022/11/27 01:18:49;;;;;;;27.02;7.78;;;5.10;99.60;;;;;;5024304;28;20033;-74
2022/11/27 01:21:17;;;;;;;30.08;8.30;;;5.10;99.50;;;;;;5020367;28;20048;-74
2022/11/27 01:23:43;;;;;;;24.80;7.70;;;5.20;99.60;;;;;;5028628;28;20433;-75
2022/11/27 01:26:10;;;;;;;27.38;8.60;;;5.30;99.60;;;;;;5033725;28;20033;-74
2022/11/27 01:28:38;;;;;;;30.75;8.27;;;5.20;99.40;;;;;;5032074;28;20041;-76
2022/11/27 01:31:06;;;;;;;31.80;8.43;;;5.10;99.20;;;;;;5032440;28;20040;-75
2022/11/27 01:33:31;;;;;;;26.90;8.90;;;5.10;99.30;;;;;;5015399;28;20601;-75
2022/11/27 01:36:00;;;;;;;23.65;8.93;;;5.10;99.30;;;;;;5027216;28;20148;-74
2022/11/27 01:38:27;;;;;;;23.75;8.65;;;5.10;99.30;;;;;;5031286;28;20380;-74
2022/11/27 01:41:03;;;;;;;24.70;8.32;;;5.10;99.20;;;;;;5023062;28;20022;-74
2022/11/27 01:43:44;;;;;;;26.02;8.95;;;5.10;99.20;;;;;;5025449;28;20029;-76
2022/11/27 01:46:34;;;;;;;29.42;8.93;;;5.10;99.20;;;;;;5021496;28;20052;-74
2022/11/27 01:49:07;;;;;;;29.03;7.47;;;5.00;99.20;;;;;;5026899;28;20389;-74
2022/11/27 01:51:33;;;;;;;21.33;8.15;;;5.00;99.20;;;;;;5026377;28;20291;-75
2022/11/27 01:53:59;;;;;;;25.80;9.20;;;4.90;99.20;;;;;;5021300;28;20091;-74
2022/11/27 01:56:26;;;;;;;27.20;8.48;;;4.90;99.30;;;;;;5022962;28;20055;-75
2022/11/27 01:58:53;;;;;;;24.35;7.88;;;4.90;99.40;;;;;;5019580;28;20414;-74
2022/11/27 02:01:18;;;;;;;30.70;8.77;;;4.80;99.30;;;;;;5029542;28;20051;-74
2022/11/27 02:03:44;;;;;;;27.15;8.95;;;4.80;99.30;;;;;;5026746;28;20034;-74
2022/11/27 02:06:13;;;;;;;27.27;8.85;;;4.80;99.40;;;;;;5030725;28;20419;-74
2022/11/27 02:08:39;;;;;;;27.17;8.13;;;4.80;99.30;;;;;;5029227;28;20434;-74
2022/11/27 02:11:08;;;;;;;31.00;9.15;;;4.80;99.40;;;;;;5018994;28;20025;-73
2022/11/27 02:13:47;;;;;;;25.45;9.52;;;4.80;99.40;;;;;;5025685;28;20060;-74
2022/11/27 02:16:35;;;;;;;20.50;7.93;;;4.70;99.40;;;;;;5037262;28;20044;-74
2022/11/27 02:19:15;;;;;;;25.17;8.90;;;4.60;99.40;;;;;;5020226;28;20043;-74
2022/11/27 02:22:06;;;;;;;24.63;8.80;;;4.70;99.50;;;;;;5023611;28;20049;-74
2022/11/27 02:25:01;;;;;;;30.98;9.52;;;4.70;99.50;;;;;;5027975;28;20038;-74
2022/11/27 02:27:56;;;;;;;33.15;9.65;;;4.70;99.50;;;;;;5020033;28;20061;-74
2022/11/27 02:30:22;;;;;;;24.33;8.70;;;4.60;99.40;;;;;;5040981;28;20476;-76
2022/11/27 02:32:59;;;;;;;20.98;8.05;;;4.60;99.50;;;;;;5018619;28;20029;-73
2022/11/27 02:35:43;;;;;;;25.33;9.88;;;4.60;99.50;;;;;;5027262;28;20021;-74
2022/11/27 02:38:20;;;;;;;27.17;9.00;;;4.50;99.50;;;;;;5020569;28;20048;-74
2022/11/27 02:41:04;;;;;;;27.02;10.30;;;4.50;99.50;;;;;;5027060;28;20021;-74
2022/11/27 02:43:34;;;;;;;26.98;10.02;;;4.50;99.50;;;;;;5017447;28;20056;-75
2022/11/27 02:46:02;;;;;;;23.38;8.88;;;4.40;99.50;;;;;;5025631;28;20358;-73
2022/11/27 02:48:39;;;;;;;27.58;10.00;;;4.30;99.60;;;;;;5021196;28;20033;-74
2022/11/27 02:51:07;;;;;;;25.60;9.80;;;4.40;99.60;;;;;;5030153;28;20314;-74
2022/11/27 02:53:37;;;;;;;28.23;9.40;;;4.30;99.60;;;;;;5024701;28;20040;-73
2022/11/27 02:56:08;;;;;;;27.58;9.95;;;4.30;99.60;;;;;;5027914;28;20033;-74
2022/11/27 02:58:36;;;;;;;31.63;10.60;;;4.20;99.60;;;;;;5024303;28;20088;-74
2022/11/27 03:01:04;;;;;;;26.92;10.35;;;4.10;99.60;;;;;;5033405;28;20103;-74
2022/11/27 03:03:34;;;;;;;27.45;10.32;;;4.10;99.70;;;;;;5027317;28;20160;-76
2022/11/27 03:06:08;;;;;;;29.33;11.05;;;4.10;99.80;;;;;;5030940;28;20037;-74
2022/11/27 03:08:40;;;;;;;31.95;10.98;;;4.10;99.70;;;;;;5025162;28;20140;-75
2022/11/27 03:11:09;;;;;;;26.70;10.10;;;4.00;99.80;;;;;;5018998;28;20066;-76
2022/11/27 03:13:38;;;;;;;30.48;9.70;;;4.00;99.80;;;;;;5023783;28;20053;-74
2022/11/27 03:16:24;;;;;;;27.42;11.00;;;3.90;99.80;;;;;;5016891;28;20500;-74
2022/11/27 03:19:14;;;;;;;26.38;11.32;;;3.80;99.80;;;;;;5019082;28;20116;-74
2022/11/27 03:21:44;;;;;;;32.33;11.93;;;3.80;99.90;;;;;;5026224;28;20452;-74
2022/11/27 03:24:10;;;;;;;31.00;11.45;;;3.70;99.90;;;;;;5030480;28;20047;-73
2022/11/27 03:26:37;;;;;;;32.20;12.45;;;3.70;99.90;;;;;;5025704;28;20422;-74
2022/11/27 03:29:09;;;;;;;38.45;12.68;;;3.70;99.90;;;;;;5029441;28;20048;-74
2022/11/27 03:31:35;;;;;;;32.20;11.57;;;3.70;99.90;;;;;;5026358;28;20081;-73
2022/11/27 03:34:01;;;;;;;35.80;12.38;;;3.60;99.90;;;;;;5019739;28;20110;-74
2022/11/27 03:36:27;;;;;;;34.60;13.98;;;3.70;99.90;;;;;;5024343;28;20052;-74
2022/11/27 03:38:54;;;;;;;37.00;14.45;;;3.80;99.90;;;;;;5024238;28;20075;-74
2022/11/27 03:41:47;;;;;;;44.13;13.93;;;3.60;99.90;;;;;;5025799;28;20025;-75
2022/11/27 03:44:40;;;;;;;29.48;12.57;;;3.60;99.90;;;;;;5017637;28;20112;-73
2022/11/27 03:47:45;;;;;;;33.10;13.55;;;3.50;99.90;;;;;;5030743;28;20048;-74
2022/11/27 03:50:17;;;;;;;29.25;12.13;;;3.50;99.90;;;;;;5032927;28;20445;-74
2022/11/27 03:52:52;;;;;;;34.58;12.75;;;3.40;99.90;;;;;;5031103;28;20044;-74
2022/11/27 03:55:27;;;;;;;37.95;13.85;;;3.40;99.90;;;;;;5027630;28;20013;-74
2022/11/27 03:58:14;;;;;;;39.35;13.98;;;3.40;99.90;;;;;;5024408;28;20392;-74
2022/11/27 04:00:42;;;;;;;33.03;13.77;;;3.40;99.90;;;;;;5025384;28;20046;-74
2022/11/27 04:03:10;;;;;;;43.75;15.32;;;3.30;99.90;;;;;;5020969;28;20067;-75
2022/11/27 04:05:36;;;;;;;44.55;13.63;;;3.30;99.90;;;;;;5042862;28;20033;-74
2022/11/27 04:08:01;;;;;;;39.03;15.00;;;3.30;99.90;;;;;;5022177;28;20046;-74
2022/11/27 04:10:27;;;;;;;40.58;14.50;;;3.30;99.90;;;;;;5032495;28;20437;-74
2022/11/27 04:12:52;;;;;;;36.58;14.55;;;3.30;99.90;;;;;;5016543;28;20037;-74
2022/11/27 04:15:18;;;;;;;38.03;15.40;;;3.30;99.90;;;;;;5015675;28;20342;-74
2022/11/27 04:17:43;;;;;;;50.08;16.20;;;3.20;99.90;;;;;;5029719;28;20051;-73
2022/11/27 04:20:09;;;;;;;42.70;16.17;;;3.20;99.90;;;;;;5037187;28;20025;-74
2022/11/27 04:22:35;;;;;;;45.40;16.35;;;3.20;99.90;;;;;;5020857;28;20045;-74
2022/11/27 04:25:00;;;;;;;47.20;16.83;;;3.10;99.90;;;;;;5015043;28;20037;-74
2022/11/27 04:27:26;;;;;;;41.97;15.70;;;3.10;99.90;;;;;;5021886;28;20087;-74
2022/11/27 04:29:51;;;;;;;43.83;16.25;;;3.10;99.90;;;;;;5029189;28;20091;-74
2022/11/27 04:32:17;;;;;;;45.70;16.42;;;3.10;99.90;;;;;;5027731;28;20036;-74
2022/11/27 04:34:42;;;;;;;39.95;16.05;;;3.00;99.90;;;;;;5030381;28;20174;-74
2022/11/27 04:37:08;;;;;;;42.40;17.25;;;3.00;99.90;;;;;;5020096;28;20049;-76
2022/11/27 04:39:33;;;;;;;43.20;16.10;;;3.00;99.90;;;;;;5027936;28;20048;-74
2022/11/27 04:41:59;;;;;;;43.05;15.77;;;2.90;99.90;;;;;;5022335;28;20364;-74
2022/11/27 04:44:24;;;;;;;41.88;15.35;;;2.90;99.90;;;;;;5020465;28;20438;-74
2022/11/27 04:46:50;;;;;;;41.85;17.23;;;2.80;99.90;;;;;;5026118;28;20101;-74
2022/11/27 04:49:15;;;;;;;49.72;17.90;;;2.80;99.90;;;;;;5026903;28;20477;-74
2022/11/27 04:51:41;;;;;;;47.75;17.63;;;2.80;99.90;;;;;;5023117;28;20184;-74
2022/11/27 04:54:07;;;;;;;47.50;18.23;;;2.80;99.90;;;;;;5026729;28;20025;-74
2022/11/27 04:56:32;;;;;;;53.30;17.60;;;2.70;99.90;;;;;;5024158;28;20026;-74
2022/11/27 04:58:57;;;;;;;53.03;17.80;;;2.70;99.90;;;;;;5013047;28;20029;-74
2022/11/27 05:01:23;;;;;;;50.50;16.63;;;2.70;99.90;;;;;;5042082;28;20022;-74
2022/11/27 05:03:48;;;;;;;53.42;18.00;;;2.60;99.90;;;;;;5031031;28;20426;-73
2022/11/27 05:06:14;;;;;;;55.33;17.30;;;2.60;99.90;;;;;;5022884;28;20034;-74
2022/11/27 05:08:40;;;;;;;57.55;19.25;;;2.60;99.90;;;;;;5025618;28;20028;-74
2022/11/27 05:11:10;;;;;;;46.22;16.98;;;2.50;99.90;;;;;;5027586;28;20036;-74
2022/11/27 05:13:35;;;;;;;59.13;18.50;;;2.60;99.90;;;;;;5031216;28;20021;-76
2022/11/27 05:16:01;;;;;;;63.33;19.10;;;2.60;99.90;;;;;;5029020;28;20511;-76
2022/11/27 05:18:26;;;;;;;53.38;18.42;;;2.50;99.90;;;;;;5023134;28;20025;-74
2022/11/27 05:21:10;;;;;;;60.45;20.00;;;2.40;99.90;;;;;;5034975;28;20069;-73
2022/11/27 05:23:35;;;;;;;49.95;18.13;;;2.40;99.90;;;;;;5022307;28;20132;-75
2022/11/27 05:26:02;;;;;;;65.10;18.83;;;2.40;99.90;;;;;;5028218;28;20107;-73
2022/11/27 05:28:27;;;;;;;52.72;18.73;;;2.30;99.90;;;;;;5032452;28;20045;-78
2022/11/27 05:30:53;;;;;;;56.42;18.90;;;2.30;99.90;;;;;;5031255;28;20420;-78
2022/11/27 05:33:18;;;;;;;64.57;21.00;;;2.30;99.90;;;;;;5022608;28;20025;-76
2022/11/27 05:35:44;;;;;;;61.75;20.05;;;2.30;99.90;;;;;;5016081;28;20043;-77
2022/11/27 05:38:11;;;;;;;58.38;20.33;;;2.30;99.90;;;;;;5031142;28;20488;-76
2022/11/27 05:40:37;;;;;;;62.85;21.58;;;2.20;99.90;;;;;;5017968;28;20033;-76
2022/11/27 05:43:02;;;;;;;73.55;21.25;;;2.20;99.90;;;;;;5027374;28;20111;-78
2022/11/27 05:45:28;;;;;;;65.63;20.98;;;2.20;99.90;;;;;;5025824;28;20025;-80
2022/11/27 05:47:53;;;;;;;69.72;21.58;;;2.10;99.90;;;;;;5028736;28;20113;-77
2022/11/27 05:50:19;;;;;;;64.10;21.77;;;2.10;99.90;;;;;;5030534;28;20100;-80
2022/11/27 05:52:44;;;;;;;65.65;21.38;;;2.20;99.90;;;;;;5024986;28;20095;-76
2022/11/27 05:55:10;;;;;;;62.15;21.42;;;2.10;99.90;;;;;;5030223;28;20032;-76
2022/11/27 05:57:35;;;;;;;77.97;22.02;;;2.20;99.90;;;;;;5022252;28;20028;-76
2022/11/27 06:00:01;;;;;;;75.25;20.25;;;2.10;99.90;;;;;;5021476;28;20111;-76
2022/11/27 06:02:26;;;;;;;74.85;22.60;;;2.10;99.90;;;;;;5028953;28;20021;-76
2022/11/27 06:04:52;;;;;;;73.70;21.83;;;2.10;99.90;;;;;;5029435;28;20475;-77
2022/11/27 06:07:18;;;;;;;72.35;21.92;;;2.10;99.90;;;;;;5032724;28;20030;-76
2022/11/27 06:09:43;;;;;;;67.07;21.88;;;2.10;99.90;;;;;;5022876;28;20116;-77
2022/11/27 06:12:09;;;;;;;69.80;21.73;;;2.10;99.90;;;;;;5024937;28;20038;-77
2022/11/27 06:14:35;;;;;;;82.65;22.08;;;2.10;99.90;;;;;;5021130;28;20099;-76
2022/11/27 06:17:01;;;;;;;72.90;22.23;;;2.10;99.90;;;;;;5029035;28;20029;-77
2022/11/27 06:19:27;;;;;;;76.57;22.65;;;2.10;99.90;;;;;;5032178;28;20032;-76
2022/11/27 06:21:52;;;;;;;67.68;21.23;;;2.10;99.90;;;;;;5021641;28;20054;-76
2022/11/27 06:24:18;;;;;;;78.07;21.88;;;2.00;99.90;;;;;;5037691;28;20427;-76
2022/11/27 06:26:43;;;;;;;65.20;22.27;;;2.10;99.90;;;;;;5021818;28;20092;-81
2022/11/27 06:29:09;;;;;;;87.75;22.67;;;2.10;99.90;;;;;;5026803;28;20044;-76
2022/11/27 06:31:34;;;;;;;78.25;21.73;;;2.10;99.90;;;;;;5039949;28;20030;-74
2022/11/27 06:34:01;;;;;;;78.28;23.02;;;2.10;99.90;;;;;;5024411;28;20343;-73
2022/11/27 06:36:35;;;;;;;61.60;19.83;;;2.00;99.90;;;;;;5025208;28;20049;-74
2022/11/27 06:39:02;;;;;;;74.05;21.20;;;2.00;99.90;;;;;;5027679;28;20410;-77
2022/11/27 06:41:28;;;;;;;74.60;21.52;;;2.00;99.90;;;;;;5024019;28;20112;-74
2022/11/27 06:43:56;;;;;;;75.25;21.45;;;2.00;99.90;;;;;;5022833;28;20104;-74
2022/11/27 06:46:23;;;;;;;72.45;20.90;;;2.00;99.90;;;;;;5031732;28;20068;-72
2022/11/27 06:48:50;;;;;;;78.50;21.30;;;2.00;99.90;;;;;;5035883;28;20029;-72
2022/11/27 06:51:19;;;;;;;70.03;21.50;;;2.00;99.90;;;;;;5034756;28;20029;-72
2022/11/27 06:53:45;;;;;;;68.70;20.48;;;2.00;99.90;;;;;;5028657;28;20077;-72
2022/11/27 06:56:13;;;;;;;70.45;20.63;;;2.10;99.90;;;;;;5025735;28;20147;-72
2022/11/27 06:58:39;;;;;;;77.22;20.20;;;2.00;99.90;;;;;;5024747;28;20162;-73
2022/11/27 07:01:07;;;;;;;80.45;21.85;;;2.00;99.90;;;;;;5023140;28;20025;-72
2022/11/27 07:03:33;;;;;;;79.03;22.73;;;2.00;99.90;;;;;;5028148;28;20028;-74
2022/11/27 07:06:00;;;;;;;77.40;20.52;;;2.10;99.90;;;;;;5029702;28;20029;-73
2022/11/27 07:08:26;;;;;;;86.38;21.92;;;2.00;99.90;;;;;;5024421;28;20097;-73
2022/11/27 07:10:52;;;;;;;64.82;21.70;;;2.00;99.90;;;;;;5042837;28;20374;-72
2022/11/27 07:13:17;;;;;;;70.13;19.65;;;2.00;99.90;;;;;;5022703;28;20022;-72
2022/11/27 07:15:43;;;;;;;76.20;22.45;;;2.00;99.90;;;;;;5030808;28;20060;-73
2022/11/27 07:18:09;;;;;;;74.70;20.52;;;2.00;99.90;;;;;;5027246;28;20025;-73
2022/11/27 07:20:34;;;;;;;73.63;20.92;;;2.00;99.90;;;;;;5025938;28;20022;-74
2022/11/27 07:22:59;;;;;;;70.20;20.45;;;2.00;99.90;;;;;;5029229;28;20049;-73
2022/11/27 07:25:25;;;;;;;77.25;20.33;;;2.00;99.90;;;;;;5022784;28;20101;-73
2022/11/27 07:27:50;;;;;;;78.25;21.80;;;2.00;99.90;;;;;;5027635;28;20490;-73
2022/11/27 07:30:16;;;;;;;87.22;22.02;;;2.00;99.90;;;;;;5022600;28;20037;-72
2022/11/27 07:32:42;;;;;;;71.68;20.63;;;2.00;99.90;;;;;;5028578;28;20123;-73
2022/11/27 07:35:08;;;;;;;71.63;20.85;;;2.10;99.90;;;;;;5025703;28;20029;-72
2022/11/27 07:37:34;;;;;;;79.90;20.92;;;2.10;99.90;;;;;;5028308;28;20105;-72
2022/11/27 07:39:59;;;;;;;80.00;20.42;;;2.10;99.90;;;;;;5032377;28;20346;-72
2022/11/27 07:42:26;;;;;;;81.15;21.23;;;2.10;99.90;;;;;;5021628;28;20048;-74
2022/11/27 07:44:51;;;;;;;90.35;20.58;;;2.10;99.90;;;;;;5023802;28;20365;-73
2022/11/27 07:47:17;;;;;;;73.78;20.30;;;2.10;99.90;;;;;;5027091;28;20041;-72
2022/11/27 07:49:42;;;;;;;82.32;20.20;;;2.10;99.90;;;;;;5019519;28;20033;-73
2022/11/27 07:52:08;;;;;;;77.70;20.63;;;2.20;99.90;;;;;;5021980;28;20034;-72
2022/11/27 07:54:34;;;;;;;71.20;19.80;;;2.20;99.90;;;;;;5027636;28;20029;-74
2022/11/27 07:57:00;;;;;;;77.70;20.40;;;2.30;99.90;;;;;;5028566;28;20013;-72
2022/11/27 07:59:26;;;;;;;68.20;20.60;;;2.30;99.90;;;;;;5020754;28;20024;-72
2022/11/27 08:01:51;;;;;;;76.70;19.25;;;2.30;99.90;;;;;;5028022;28;20083;-72
2022/11/27 08:04:17;;;;;;;68.63;19.83;;;2.30;99.90;;;;;;5031208;28;20022;-72
2022/11/27 08:06:42;;;;;;;84.20;21.40;;;2.40;99.90;;;;;;5023348;28;20116;-72
2022/11/27 08:09:08;;;;;;;74.15;20.10;;;2.40;99.90;;;;;;5023408;28;20040;-72
2022/11/27 08:11:34;;;;;;;72.22;19.77;;;2.50;99.90;;;;;;5031702;28;20394;-76
2022/11/27 08:14:03;;;;;;;61.72;18.40;;;2.60;99.90;;;;;;5020370;28;20056;-72
2022/11/27 08:16:29;;;;;;;77.60;21.90;;;2.60;99.90;;;;;;5018357;28;20036;-76
2022/11/27 08:18:55;;;;;;;71.60;18.55;;;2.60;99.90;;;;;;5021822;28;20087;-72
2022/11/27 08:21:21;;;;;;;61.00;19.95;;;2.70;99.90;;;;;;5017208;28;20029;-72
2022/11/27 08:23:47;;;;;;;69.05;18.85;;;2.70;99.90;;;;;;5021638;28;20033;-76
2022/11/27 08:26:12;;;;;;;67.80;19.77;;;2.80;99.90;;;;;;5023171;28;20041;-76
2022/11/27 08:28:39;;;;;;;68.30;19.67;;;2.90;99.90;;;;;;5025191;28;20034;-74
2022/11/27 08:31:06;;;;;;;63.03;18.10;;;2.90;99.70;;;;;;5023825;28;20113;-74
2022/11/27 08:33:32;;;;;;;63.45;18.88;;;3.00;99.60;;;;;;5023883;28;20557;-74
2022/11/27 08:35:58;;;;;;;53.92;17.88;;;3.00;99.60;;;;;;5017508;28;20029;-75
2022/11/27 08:38:24;;;;;;;61.95;17.85;;;3.00;99.30;;;;;;5030004;28;20046;-73
2022/11/27 08:41:00;;;;;;;55.42;17.80;;;3.00;99.20;;;;;;5020867;28;20172;-73
2022/11/27 08:43:27;;;;;;;60.45;17.92;;;3.10;99.00;;;;;;5020924;28;20418;-73
2022/11/27 08:45:53;;;;;;;49.42;15.23;;;3.10;98.80;;;;;;5016975;28;20044;-72
2022/11/27 08:48:19;;;;;;;61.30;18.40;;;3.20;98.60;;;;;;5023155;28;20069;-72
2022/11/27 08:50:45;;;;;;;49.58;16.63;;;3.30;98.60;;;;;;5030262;28;20087;-71
2022/11/27 08:53:12;;;;;;;48.33;17.27;;;3.30;98.50;;;;;;5027439;28;20036;-74
2022/11/27 08:55:37;;;;;;;45.58;15.90;;;3.40;98.60;;;;;;5025679;28;20533;-74
2022/11/27 08:58:03;;;;;;;50.15;16.83;;;3.50;98.40;;;;;;5024228;28;20108;-76
2022/11/27 09:00:29;;;;;;;44.33;15.88;;;3.50;98.30;;;;;;5025723;28;20041;-73
2022/11/27 09:02:55;;;;;;;38.03;14.45;;;3.60;98.20;;;;;;5024828;28;20044;-73
2022/11/27 09:05:20;;;;;;;41.90;16.20;;;3.70;98.20;;;;;;5026931;28;20109;-73
2022/11/27 09:07:46;;;;;;;42.10;15.00;;;3.80;98.00;;;;;;5027890;28;20033;-73
2022/11/27 09:10:11;;;;;;;43.00;16.10;;;3.80;97.60;;;;;;5023981;28;20379;-73
2022/11/27 09:12:37;;;;;;;35.30;15.00;;;3.80;97.50;;;;;;5020403;28;20040;-76
2022/11/27 09:15:03;;;;;;;42.85;14.32;;;3.80;97.50;;;;;;5018381;28;20082;-76
2022/11/27 09:17:29;;;;;;;36.78;14.05;;;3.70;97.40;;;;;;5030162;28;20040;-73
2022/11/27 09:19:55;;;;;;;37.00;14.70;;;3.70;97.40;;;;;;5027840;28;20029;-74
2022/11/27 09:22:20;;;;;;;35.20;13.90;;;3.70;97.30;;;;;;5030242;28;20046;-77
2022/11/27 09:24:46;;;;;;;41.85;13.88;;;3.60;97.30;;;;;;5031200;28;20052;-73
2022/11/27 09:27:11;;;;;;;35.15;13.73;;;3.60;97.40;;;;;;5039203;28;20033;-73
2022/11/27 09:29:37;;;;;;;36.67;13.50;;;3.60;97.50;;;;;;5025391;28;20074;-74
2022/11/27 09:32:02;;;;;;;30.08;13.73;;;3.60;97.50;;;;;;5025772;28;20426;-74
2022/11/27 09:34:28;;;;;;;36.72;13.80;;;3.70;97.60;;;;;;5027858;28;20053;-77
2022/11/27 09:36:53;;;;;;;32.60;13.32;;;3.90;97.70;;;;;;5025865;28;20074;-74
2022/11/27 09:39:19;;;;;;;31.17;13.15;;;4.20;97.60;;;;;;5027261;28;20108;-74
2022/11/27 09:41:50;;;;;;;29.48;13.90;;;4.40;97.10;;;;;;5025262;28;20414;-73
2022/11/27 09:44:23;;;;;;;29.13;13.07;;;4.70;96.50;;;;;;5016129;28;20186;-78
2022/11/27 09:46:50;;;;;;;29.17;11.77;;;4.90;95.60;;;;;;5027015;28;20021;-77
2022/11/27 09:49:30;;;;;;;22.15;11.05;;;5.10;95.30;;;;;;5042207;28;20045;-77
2022/11/27 09:52:08;;;;;;;19.85;11.20;;;5.00;94.40;;;;;;5042846;28;20099;-76
2022/11/27 09:54:49;;;;;;;19.75;9.00;;;5.00;94.80;;;;;;5031148;28;20043;-76
2022/11/27 09:57:19;;;;;;;15.20;8.77;;;4.90;94.10;;;;;;5026932;28;20037;-76
2022/11/27 09:59:49;;;;;;;17.50;8.20;;;4.80;94.40;;;;;;5028185;28;20033;-75
2022/11/27 10:02:17;;;;;;;20.00;8.35;;;4.80;94.50;;;;;;5029062;28;20029;-77
2022/11/27 10:04:43;;;;;;;17.73;9.18;;;4.80;94.70;;;;;;5019912;28;20153;-76
2022/11/27 10:07:17;;;;;;;14.30;8.18;;;4.80;94.80;;;;;;5023642;28;20100;-75
2022/11/27 10:09:56;;;;;;;14.02;7.07;;;4.80;94.70;;;;;;5024224;28;20368;-76
2022/11/27 10:12:57;;;;;;;15.25;8.05;;;4.80;94.80;;;;;;5021992;28;20038;-76
2022/11/27 10:15:52;;;;;;;12.77;7.28;;;4.90;94.70;;;;;;5016954;28;20130;-75
2022/11/27 10:18:40;;;;;;;16.75;7.30;;;4.90;94.60;;;;;;5019622;28;20021;-76
2022/11/27 10:21:36;;;;;;;16.88;7.78;;;5.00;94.80;;;;;;5028569;28;20062;-77
2022/11/27 10:24:20;;;;;;;15.10;7.13;;;5.00;94.50;;;;;;5023739;28;20450;-71
2022/11/27 10:26:48;;;;;;;14.27;7.60;;;5.00;94.20;;;;;;5021010;28;20261;-74
2022/11/27 10:29:29;;;;;;;15.38;7.43;;;5.10;94.10;;;;;;5038389;28;20033;-74
2022/11/27 10:31:59;;;;;;;10.70;6.40;;;5.20;94.20;;;;;;5032303;28;20030;-74
2022/11/27 10:34:49;;;;;;;14.82;7.28;;;5.20;93.90;;;;;;5028245;28;20044;-72
2022/11/27 10:37:24;;;;;;;16.65;6.72;;;5.30;93.50;;;;;;5029526;28;20025;-70
2022/11/27 10:39:58;;;;;;;17.35;6.78;;;5.30;93.50;;;;;;5029822;28;20025;-71
2022/11/27 10:42:26;;;;;;;15.15;7.13;;;5.40;93.70;;;;;;5023661;28;20017;-72
2022/11/27 10:44:59;;;;;;;12.68;6.93;;;5.40;93.50;;;;;;5021899;28;20022;-72
2022/11/27 10:47:27;;;;;;;12.23;6.28;;;5.40;93.20;;;;;;5021662;28;20841;-71
2022/11/27 10:49:52;;;;;;;16.48;7.22;;;5.50;93.20;;;;;;5018406;28;20041;-74
2022/11/27 10:52:19;;;;;;;13.32;6.97;;;5.50;93.10;;;;;;5020988;28;20105;-71
2022/11/27 10:54:51;;;;;;;11.57;7.00;;;5.40;93.00;;;;;;5023366;28;20083;-72
2022/11/27 10:57:52;;;;;;;14.48;7.03;;;5.50;93.10;;;;;;5022930;28;20037;-74
2022/11/27 11:00:22;;;;;;;12.63;6.85;;;5.60;93.30;;;;;;4996077;28;20050;-71
2022/11/27 11:02:57;;;;;;;13.50;7.03;;;5.60;93.30;;;;;;5024259;28;20013;-74
2022/11/27 11:05:25;;;;;;;17.58;7.38;;;5.60;93.10;;;;;;5014941;28;20062;-72
2022/11/27 11:08:13;;;;;;;14.85;6.63;;;5.60;93.20;;;;;;5028863;28;20364;-69
2022/11/27 11:10:57;;;;;;;12.57;6.75;;;5.60;93.40;;;;;;5023823;28;20438;-69
2022/11/27 11:13:28;;;;;;;13.27;6.47;;;5.60;93.40;;;;;;5026044;28;20033;-69
2022/11/27 11:15:57;;;;;;;14.57;6.13;;;5.50;93.20;;;;;;5027134;28;20069;-69
2022/11/27 11:18:28;;;;;;;14.07;6.25;;;5.50;93.40;;;;;;5027095;28;20113;-69
2022/11/27 11:21:03;;;;;;;10.73;6.25;;;5.50;93.10;;;;;;5028329;28;20028;-69
2022/11/27 11:23:38;;;;;;;14.10;7.40;;;5.40;93.10;;;;;;5026684;28;20058;-70
2022/11/27 11:26:22;;;;;;;17.05;7.00;;;5.50;93.30;;;;;;5027739;28;20045;-70
2022/11/27 11:28:52;;;;;;;12.32;6.05;;;5.50;93.40;;;;;;5029347;28;20315;-70
2022/11/27 11:31:27;;;;;;;14.82;6.85;;;5.50;93.20;;;;;;5023730;28;20032;-69
2022/11/27 11:33:59;;;;;;;12.38;6.93;;;5.50;93.40;;;;;;5019092;28;20048;-68
2022/11/27 11:36:24;;;;;;;12.85;6.65;;;5.60;93.50;;;;;;5028818;28;20071;-69
2022/11/27 11:38:51;;;;;;;16.23;6.63;;;5.60;93.50;;;;;;5027942;28;20025;-69
2022/11/27 11:41:17;;;;;;;15.25;6.70;;;5.60;93.40;;;;;;5026955;28;20033;-69
2022/11/27 11:44:00;;;;;;;10.25;6.32;;;5.60;93.70;;;;;;5022891;28;20037;-70
2022/11/27 11:46:29;;;;;;;15.25;7.20;;;5.60;93.50;;;;;;5027263;28;20481;-69
2022/11/27 11:49:06;;;;;;;16.45;7.47;;;5.60;93.30;;;;;;5026481;28;20056;-68
2022/11/27 11:52:01;;;;;;;13.77;6.85;;;5.60;93.50;;;;;;5027798;28;20428;-73
2022/11/27 11:54:50;;;;;;;12.52;6.25;;;5.60;93.00;;;;;;5039764;28;20045;-68
2022/11/27 11:57:34;;;;;;;11.32;6.80;;;5.60;93.50;;;;;;5042261;28;20457;-69
2022/11/27 12:00:04;;;;;;;14.15;6.78;;;5.60;93.10;;;;;;5022737;28;20018;-70
2022/11/27 12:02:52;;;;;;;11.93;7.13;;;5.60;93.10;;;;;;5032261;28;20033;-69
2022/11/27 12:05:28;;;;;;;12.60;6.65;;;5.70;93.10;;;;;;5020036;28;20466;-68
2022/11/27 12:08:20;;;;;;;15.20;6.57;;;5.70;93.10;;;;;;5028382;28;20402;-69
2022/11/27 12:11:05;;;;;;;12.95;6.13;;;5.70;93.10;;;;;;5027652;28;20025;-71
2022/11/27 12:13:56;;;;;;;11.93;6.65;;;5.70;92.80;;;;;;5026590;28;20142;-69
2022/11/27 12:16:44;;;;;;;15.95;6.72;;;5.70;92.50;;;;;;5015109;28;20089;-70
2022/11/27 12:19:47;;;;;;;10.45;5.95;;;5.80;92.60;;;;;;5008703;28;20021;-68
2022/11/27 12:22:23;;;;;;;11.07;6.28;;;5.80;92.70;;;;;;5021638;28;20136;-69
2022/11/27 12:25:17;;;;;;;10.68;6.28;;;5.80;92.80;;;;;;5029267;28;20195;-69
2022/11/27 12:28:17;;;;;;;12.68;5.85;;;5.80;92.60;;;;;;5030872;28;20041;-70
2022/11/27 12:31:01;;;;;;;14.30;6.67;;;5.80;92.60;;;;;;5013696;28;20044;-70
2022/11/27 12:33:41;;;;;;;12.60;6.45;;;5.90;92.70;;;;;;5018982;28;20020;-68
2022/11/27 12:36:28;;;;;;;13.73;7.30;;;5.90;92.20;;;;;;5034814;28;20175;-68
2022/11/27 12:39:20;;;;;;;15.48;7.03;;;6.00;92.40;;;;;;5030745;28;20029;-69
2022/11/27 12:42:16;;;;;;;9.98;5.90;;;5.90;92.30;;;;;;5029042;28;20108;-69
2022/11/27 12:45:06;;;;;;;11.93;5.90;;;6.00;92.50;;;;;;5017274;28;20453;-69
2022/11/27 12:47:50;;;;;;;12.10;6.53;;;6.00;92.30;;;;;;5015663;28;20052;-69
2022/11/27 12:50:35;;;;;;;12.60;6.43;;;6.10;92.50;;;;;;5031091;28;20036;-72
2022/11/27 12:53:42;;;;;;;12.95;6.70;;;6.00;92.40;;;;;;5028438;28;20143;-72
2022/11/27 12:56:31;;;;;;;10.90;6.55;;;6.00;92.30;;;;;;5023760;28;20449;-68
2022/11/27 12:59:37;;;;;;;14.00;6.40;;;6.10;92.40;;;;;;5031305;28;20437;-69